sensor_id;sensor_type;location;lat;lon;timestamp;P1;durP1;ratioP1;P2;durP2;ratioP2
15159;SDS011;7680;48.800;9.680;2023-09-19T00:03:51;2.45;;;1.52;;
15159;SDS011;7680;48.800;9.680;2023-09-19T00:08:55;1.80;;;1.63;;
15159;SDS011;7680;48.800;9.680;2023-09-19T00:14:01;1.60;;;1.50;;
15159;SDS011;7680;48.800;9.680;2023-09-19T00:19:06;1.58;;;1.48;;
15159;SDS011;7680;48.800;9.680;2023-09-19T00:24:10;2.45;;;1.70;;
15159;SDS011;7680;48.800;9.680;2023-09-19T00:29:15;1.80;;;1.70;;
15159;SDS011;7680;48.800;9.680;2023-09-19T00:34:19;2.35;;;1.63;;
15159;SDS011;7680;48.800;9.680;2023-09-19T00:39:22;1.50;;;1.40;;
15159;SDS011;7680;48.800;9.680;2023-09-19T00:44:28;1.38;;;1.27;;
15159;SDS011;7680;48.800;9.680;2023-09-19T00:49:32;1.70;;;1.60;;
15159;SDS011;7680;48.800;9.680;2023-09-19T00:54:35;1.60;;;1.50;;
15159;SDS011;7680;48.800;9.680;2023-09-19T00:59:40;1.88;;;1.60;;
15159;SDS011;7680;48.800;9.680;2023-09-19T01:04:44;1.67;;;1.33;;
15159;SDS011;7680;48.800;9.680;2023-09-19T01:09:48;2.58;;;1.45;;
15159;SDS011;7680;48.800;9.680;2023-09-19T01:14:54;2.25;;;1.58;;
15159;SDS011;7680;48.800;9.680;2023-09-19T01:20:15;1.60;;;1.35;;
15159;SDS011;7680;48.800;9.680;2023-09-19T01:25:49;1.63;;;1.30;;
15159;SDS011;7680;48.800;9.680;2023-09-19T01:31:22;1.60;;;1.50;;
15159;SDS011;7680;48.800;9.680;2023-09-19T01:36:32;1.55;;;1.45;;
15159;SDS011;7680;48.800;9.680;2023-09-19T01:41:40;1.50;;;1.40;;
15159;SDS011;7680;48.800;9.680;2023-09-19T01:46:59;2.05;;;1.27;;
15159;SDS011;7680;48.800;9.680;2023-09-19T01:52:13;2.05;;;1.33;;
15159;SDS011;7680;48.800;9.680;2023-09-19T01:57:22;2.10;;;1.30;;
15159;SDS011;7680;48.800;9.680;2023-09-19T02:02:33;1.70;;;1.40;;
15159;SDS011;7680;48.800;9.680;2023-09-19T02:07:39;1.50;;;1.40;;
15159;SDS011;7680;48.800;9.680;2023-09-19T02:12:43;1.20;;;1.10;;
15159;SDS011;7680;48.800;9.680;2023-09-19T02:17:47;1.70;;;1.60;;
15159;SDS011;7680;48.800;9.680;2023-09-19T02:22:51;2.22;;;1.60;;
15159;SDS011;7680;48.800;9.680;2023-09-19T02:27:54;2.15;;;1.63;;
15159;SDS011;7680;48.800;9.680;2023-09-19T02:33:01;1.45;;;1.30;;
15159;SDS011;7680;48.800;9.680;2023-09-19T02:38:07;1.38;;;1.33;;
15159;SDS011;7680;48.800;9.680;2023-09-19T02:43:12;1.70;;;1.60;;
15159;SDS011;7680;48.800;9.680;2023-09-19T02:48:17;2.28;;;1.60;;
15159;SDS011;7680;48.800;9.680;2023-09-19T02:53:21;1.45;;;1.35;;
15159;SDS011;7680;48.800;9.680;2023-09-19T02:58:25;1.67;;;1.58;;
15159;SDS011;7680;48.800;9.680;2023-09-19T03:03:30;2.28;;;1.60;;
15159;SDS011;7680;48.800;9.680;2023-09-19T03:08:34;2.15;;;1.50;;
15159;SDS011;7680;48.800;9.680;2023-09-19T03:13:40;1.77;;;1.67;;
15159;SDS011;7680;48.800;9.680;2023-09-19T03:18:48;1.70;;;1.58;;
15159;SDS011;7680;48.800;9.680;2023-09-19T03:23:52;1.52;;;1.42;;
15159;SDS011;7680;48.800;9.680;2023-09-19T03:28:55;2.03;;;1.55;;
15159;SDS011;7680;48.800;9.680;2023-09-19T03:34:00;1.60;;;1.50;;
15159;SDS011;7680;48.800;9.680;2023-09-19T03:39:04;1.70;;;1.50;;
15159;SDS011;7680;48.800;9.680;2023-09-19T03:44:09;1.75;;;1.65;;
15159;SDS011;7680;48.800;9.680;2023-09-19T03:49:13;1.70;;;1.60;;
15159;SDS011;7680;48.800;9.680;2023-09-19T03:54:17;1.55;;;1.50;;
15159;SDS011;7680;48.800;9.680;2023-09-19T03:59:20;1.92;;;1.83;;
15159;SDS011;7680;48.800;9.680;2023-09-19T04:04:25;2.22;;;1.80;;
15159;SDS011;7680;48.800;9.680;2023-09-19T04:09:30;2.40;;;1.80;;
15159;SDS011;7680;48.800;9.680;2023-09-19T04:14:34;2.97;;;1.85;;
15159;SDS011;7680;48.800;9.680;2023-09-19T04:19:38;1.92;;;1.70;;
15159;SDS011;7680;48.800;9.680;2023-09-19T04:24:43;1.88;;;1.77;;
15159;SDS011;7680;48.800;9.680;2023-09-19T04:29:46;1.77;;;1.60;;
15159;SDS011;7680;48.800;9.680;2023-09-19T04:34:55;2.05;;;1.85;;
15159;SDS011;7680;48.800;9.680;2023-09-19T04:40:01;1.63;;;1.52;;
15159;SDS011;7680;48.800;9.680;2023-09-19T04:45:07;1.88;;;1.77;;
15159;SDS011;7680;48.800;9.680;2023-09-19T04:50:13;1.60;;;1.50;;
15159;SDS011;7680;48.800;9.680;2023-09-19T04:55:19;2.20;;;1.67;;
15159;SDS011;7680;48.800;9.680;2023-09-19T05:00:22;2.45;;;1.88;;
15159;SDS011;7680;48.800;9.680;2023-09-19T05:05:30;2.33;;;1.75;;
15159;SDS011;7680;48.800;9.680;2023-09-19T05:10:33;1.70;;;1.60;;
15159;SDS011;7680;48.800;9.680;2023-09-19T05:15:39;2.38;;;1.70;;
15159;SDS011;7680;48.800;9.680;2023-09-19T05:20:43;1.92;;;1.73;;
15159;SDS011;7680;48.800;9.680;2023-09-19T05:25:47;2.17;;;2.00;;
15159;SDS011;7680;48.800;9.680;2023-09-19T05:30:50;1.90;;;1.73;;
15159;SDS011;7680;48.800;9.680;2023-09-19T05:35:55;1.75;;;1.60;;
15159;SDS011;7680;48.800;9.680;2023-09-19T05:40:59;2.40;;;1.75;;
15159;SDS011;7680;48.800;9.680;2023-09-19T05:46:03;2.00;;;1.90;;
15159;SDS011;7680;48.800;9.680;2023-09-19T05:51:08;2.47;;;1.77;;
15159;SDS011;7680;48.800;9.680;2023-09-19T05:56:11;2.30;;;1.80;;
15159;SDS011;7680;48.800;9.680;2023-09-19T06:01:15;2.22;;;2.03;;
15159;SDS011;7680;48.800;9.680;2023-09-19T06:06:20;2.50;;;2.05;;
15159;SDS011;7680;48.800;9.680;2023-09-19T06:11:25;2.47;;;1.98;;
15159;SDS011;7680;48.800;9.680;2023-09-19T06:16:30;2.03;;;1.92;;
15159;SDS011;7680;48.800;9.680;2023-09-19T06:21:35;2.92;;;2.15;;
15159;SDS011;7680;48.800;9.680;2023-09-19T06:26:40;2.13;;;1.92;;
15159;SDS011;7680;48.800;9.680;2023-09-19T06:31:43;4.75;;;2.00;;
15159;SDS011;7680;48.800;9.680;2023-09-19T06:36:48;2.13;;;1.88;;
15159;SDS011;7680;48.800;9.680;2023-09-19T06:41:54;2.15;;;1.95;;
15159;SDS011;7680;48.800;9.680;2023-09-19T06:46:57;2.40;;;2.20;;
15159;SDS011;7680;48.800;9.680;2023-09-19T06:52:02;2.85;;;2.47;;
15159;SDS011;7680;48.800;9.680;2023-09-19T06:57:06;3.13;;;2.83;;
15159;SDS011;7680;48.800;9.680;2023-09-19T07:02:11;2.63;;;2.38;;
15159;SDS011;7680;48.800;9.680;2023-09-19T07:07:16;3.30;;;2.50;;
15159;SDS011;7680;48.800;9.680;2023-09-19T07:12:19;5.10;;;2.80;;
15159;SDS011;7680;48.800;9.680;2023-09-19T07:17:23;3.38;;;2.88;;
15159;SDS011;7680;48.800;9.680;2023-09-19T07:22:27;4.60;;;3.28;;
15159;SDS011;7680;48.800;9.680;2023-09-19T07:27:31;4.18;;;3.28;;
15159;SDS011;7680;48.800;9.680;2023-09-19T07:32:34;3.63;;;3.28;;
15159;SDS011;7680;48.800;9.680;2023-09-19T07:37:40;4.22;;;3.47;;
15159;SDS011;7680;48.800;9.680;2023-09-19T07:42:43;5.22;;;3.83;;
15159;SDS011;7680;48.800;9.680;2023-09-19T07:47:49;4.03;;;3.63;;
15159;SDS011;7680;48.800;9.680;2023-09-19T07:52:54;5.00;;;3.47;;
15159;SDS011;7680;48.800;9.680;2023-09-19T07:57:58;3.88;;;2.92;;
15159;SDS011;7680;48.800;9.680;2023-09-19T08:03:01;3.75;;;3.30;;
15159;SDS011;7680;48.800;9.680;2023-09-19T08:08:18;3.25;;;2.97;;
15159;SDS011;7680;48.800;9.680;2023-09-19T08:13:23;3.88;;;2.83;;
15159;SDS011;7680;48.800;9.680;2023-09-19T08:18:26;5.78;;;3.10;;
15159;SDS011;7680;48.800;9.680;2023-09-19T08:23:33;3.28;;;2.97;;
15159;SDS011;7680;48.800;9.680;2023-09-19T08:28:36;3.65;;;2.40;;
15159;SDS011;7680;48.800;9.680;2023-09-19T08:33:42;3.03;;;2.70;;
15159;SDS011;7680;48.800;9.680;2023-09-19T08:38:51;4.82;;;2.65;;
15159;SDS011;7680;48.800;9.680;2023-09-19T08:43:58;3.30;;;2.50;;
15159;SDS011;7680;48.800;9.680;2023-09-19T08:49:05;2.60;;;2.40;;
15159;SDS011;7680;48.800;9.680;2023-09-19T08:54:17;2.60;;;2.40;;
15159;SDS011;7680;48.800;9.680;2023-09-19T08:59:27;2.55;;;2.35;;
15159;SDS011;7680;48.800;9.680;2023-09-19T09:04:32;2.42;;;2.10;;
15159;SDS011;7680;48.800;9.680;2023-09-19T09:09:38;2.58;;;2.15;;
15159;SDS011;7680;48.800;9.680;2023-09-19T09:14:44;2.67;;;2.33;;
15159;SDS011;7680;48.800;9.680;2023-09-19T09:19:51;2.60;;;2.10;;
15159;SDS011;7680;48.800;9.680;2023-09-19T09:24:57;3.13;;;2.22;;
15159;SDS011;7680;48.800;9.680;2023-09-19T09:30:05;2.47;;;2.22;;
15159;SDS011;7680;48.800;9.680;2023-09-19T09:35:10;2.42;;;2.22;;
15159;SDS011;7680;48.800;9.680;2023-09-19T09:40:17;2.42;;;2.20;;
15159;SDS011;7680;48.800;9.680;2023-09-19T09:45:37;2.03;;;1.92;;
15159;SDS011;7680;48.800;9.680;2023-09-19T09:50:49;2.58;;;2.22;;
15159;SDS011;7680;48.800;9.680;2023-09-19T09:55:59;3.08;;;1.92;;
15159;SDS011;7680;48.800;9.680;2023-09-19T10:01:07;3.17;;;2.13;;
15159;SDS011;7680;48.800;9.680;2023-09-19T10:06:17;1.98;;;1.83;;
15159;SDS011;7680;48.800;9.680;2023-09-19T10:11:31;2.40;;;2.05;;
15159;SDS011;7680;48.800;9.680;2023-09-19T10:16:34;2.45;;;1.85;;
15159;SDS011;7680;48.800;9.680;2023-09-19T10:21:43;2.40;;;1.58;;
15159;SDS011;7680;48.800;9.680;2023-09-19T10:26:49;2.33;;;1.67;;
15159;SDS011;7680;48.800;9.680;2023-09-19T10:31:53;2.28;;;2.08;;
15159;SDS011;7680;48.800;9.680;2023-09-19T10:36:56;3.25;;;2.00;;
15159;SDS011;7680;48.800;9.680;2023-09-19T10:42:05;2.05;;;1.85;;
15159;SDS011;7680;48.800;9.680;2023-09-19T10:47:10;2.10;;;1.70;;
15159;SDS011;7680;48.800;9.680;2023-09-19T10:52:15;2.00;;;1.90;;
15159;SDS011;7680;48.800;9.680;2023-09-19T10:57:25;2.10;;;1.95;;
15159;SDS011;7680;48.800;9.680;2023-09-19T11:02:29;2.10;;;1.90;;
15159;SDS011;7680;48.800;9.680;2023-09-19T11:07:33;1.90;;;1.80;;
15159;SDS011;7680;48.800;9.680;2023-09-19T11:13:14;2.10;;;1.90;;
15159;SDS011;7680;48.800;9.680;2023-09-19T11:29:34;2.53;;;1.80;;
15159;SDS011;7680;48.800;9.680;2023-09-19T11:34:38;2.13;;;1.67;;
15159;SDS011;7680;48.800;9.680;2023-09-19T11:40:05;2.40;;;1.70;;
15159;SDS011;7680;48.800;9.680;2023-09-19T11:51:10;2.47;;;1.60;;
15159;SDS011;7680;48.800;9.680;2023-09-19T11:56:21;1.70;;;1.60;;
15159;SDS011;7680;48.800;9.680;2023-09-19T12:01:29;1.80;;;1.70;;
15159;SDS011;7680;48.800;9.680;2023-09-19T12:06:34;2.05;;;1.42;;
15159;SDS011;7680;48.800;9.680;2023-09-19T12:11:41;2.53;;;1.52;;
15159;SDS011;7680;48.800;9.680;2023-09-19T12:16:51;1.83;;;1.63;;
15159;SDS011;7680;48.800;9.680;2023-09-19T12:21:57;2.35;;;1.80;;
15159;SDS011;7680;48.800;9.680;2023-09-19T12:27:06;2.22;;;2.03;;
15159;SDS011;7680;48.800;9.680;2023-09-19T12:32:12;2.10;;;1.67;;
15159;SDS011;7680;48.800;9.680;2023-09-19T12:37:18;1.50;;;1.40;;
15159;SDS011;7680;48.800;9.680;2023-09-19T12:42:23;2.10;;;1.60;;
15159;SDS011;7680;48.800;9.680;2023-09-19T12:47:32;2.00;;;1.50;;
15159;SDS011;7680;48.800;9.680;2023-09-19T12:52:36;3.70;;;1.73;;
15159;SDS011;7680;48.800;9.680;2023-09-19T12:57:40;1.83;;;1.52;;
15159;SDS011;7680;48.800;9.680;2023-09-19T13:08:18;3.20;;;1.85;;
15159;SDS011;7680;48.800;9.680;2023-09-19T13:13:23;1.60;;;1.50;;
15159;SDS011;7680;48.800;9.680;2023-09-19T13:18:31;1.60;;;1.50;;
15159;SDS011;7680;48.800;9.680;2023-09-19T13:23:34;1.70;;;1.58;;
15159;SDS011;7680;48.800;9.680;2023-09-19T13:28:38;1.60;;;1.50;;
15159;SDS011;7680;48.800;9.680;2023-09-19T13:33:44;2.17;;;1.33;;
15159;SDS011;7680;48.800;9.680;2023-09-19T13:38:49;1.70;;;1.60;;
15159;SDS011;7680;48.800;9.680;2023-09-19T13:43:54;1.80;;;1.70;;
15159;SDS011;7680;48.800;9.680;2023-09-19T13:48:59;2.25;;;1.70;;
15159;SDS011;7680;48.800;9.680;2023-09-19T13:54:04;2.10;;;1.83;;
15159;SDS011;7680;48.800;9.680;2023-09-19T13:59:08;1.92;;;1.83;;
15159;SDS011;7680;48.800;9.680;2023-09-19T14:04:13;2.03;;;1.80;;
15159;SDS011;7680;48.800;9.680;2023-09-19T14:09:16;2.67;;;1.77;;
15159;SDS011;7680;48.800;9.680;2023-09-19T14:14:22;2.13;;;1.67;;
15159;SDS011;7680;48.800;9.680;2023-09-19T14:19:26;2.58;;;1.70;;
15159;SDS011;7680;48.800;9.680;2023-09-19T14:24:30;2.13;;;1.70;;
15159;SDS011;7680;48.800;9.680;2023-09-19T14:29:33;2.42;;;1.60;;
15159;SDS011;7680;48.800;9.680;2023-09-19T14:34:37;2.03;;;1.90;;
15159;SDS011;7680;48.800;9.680;2023-09-19T14:39:44;1.75;;;1.65;;
15159;SDS011;7680;48.800;9.680;2023-09-19T14:44:48;2.03;;;1.63;;
15159;SDS011;7680;48.800;9.680;2023-09-19T14:49:52;1.70;;;1.58;;
15159;SDS011;7680;48.800;9.680;2023-09-19T14:54:56;1.70;;;1.60;;
15159;SDS011;7680;48.800;9.680;2023-09-19T14:59:59;2.28;;;1.45;;
15159;SDS011;7680;48.800;9.680;2023-09-19T15:05:08;2.00;;;1.90;;
15159;SDS011;7680;48.800;9.680;2023-09-19T15:10:12;2.08;;;1.90;;
15159;SDS011;7680;48.800;9.680;2023-09-19T15:15:16;2.67;;;1.70;;
15159;SDS011;7680;48.800;9.680;2023-09-19T15:20:20;2.00;;;1.80;;
15159;SDS011;7680;48.800;9.680;2023-09-19T15:25:23;2.00;;;1.90;;
15159;SDS011;7680;48.800;9.680;2023-09-19T15:30:28;1.55;;;1.45;;
15159;SDS011;7680;48.800;9.680;2023-09-19T15:35:33;1.60;;;1.50;;
15159;SDS011;7680;48.800;9.680;2023-09-19T15:40:45;1.92;;;1.67;;
15159;SDS011;7680;48.800;9.680;2023-09-19T15:45:49;1.75;;;1.65;;
15159;SDS011;7680;48.800;9.680;2023-09-19T15:50:54;1.75;;;1.58;;
15159;SDS011;7680;48.800;9.680;2023-09-19T15:55:59;1.73;;;1.42;;
15159;SDS011;7680;48.800;9.680;2023-09-19T16:01:08;1.92;;;1.80;;
15159;SDS011;7680;48.800;9.680;2023-09-19T16:06:14;1.52;;;1.42;;
15159;SDS011;7680;48.800;9.680;2023-09-19T16:11:19;2.10;;;1.40;;
15159;SDS011;7680;48.800;9.680;2023-09-19T16:16:23;1.80;;;1.67;;
15159;SDS011;7680;48.800;9.680;2023-09-19T16:21:33;1.60;;;1.50;;
15159;SDS011;7680;48.800;9.680;2023-09-19T16:26:37;1.98;;;1.88;;
15159;SDS011;7680;48.800;9.680;2023-09-19T16:31:40;2.30;;;1.65;;
15159;SDS011;7680;48.800;9.680;2023-09-19T16:36:45;2.00;;;1.83;;
15159;SDS011;7680;48.800;9.680;2023-09-19T16:41:49;2.08;;;1.98;;
15159;SDS011;7680;48.800;9.680;2023-09-19T16:46:53;1.73;;;1.63;;
15159;SDS011;7680;48.800;9.680;2023-09-19T16:51:57;1.92;;;1.75;;
15159;SDS011;7680;48.800;9.680;2023-09-19T16:57:00;2.20;;;2.00;;
15159;SDS011;7680;48.800;9.680;2023-09-19T17:02:04;3.70;;;2.08;;
15159;SDS011;7680;48.800;9.680;2023-09-19T17:07:11;2.45;;;2.25;;
15159;SDS011;7680;48.800;9.680;2023-09-19T17:12:14;3.13;;;1.92;;
15159;SDS011;7680;48.800;9.680;2023-09-19T17:17:17;3.15;;;2.05;;
15159;SDS011;7680;48.800;9.680;2023-09-19T17:22:22;3.42;;;2.28;;
15159;SDS011;7680;48.800;9.680;2023-09-19T17:27:25;2.38;;;1.90;;
15159;SDS011;7680;48.800;9.680;2023-09-19T17:32:29;2.88;;;2.03;;
15159;SDS011;7680;48.800;9.680;2023-09-19T17:37:34;2.00;;;1.90;;
15159;SDS011;7680;48.800;9.680;2023-09-19T17:42:37;2.05;;;1.85;;
15159;SDS011;7680;48.800;9.680;2023-09-19T17:47:43;2.78;;;2.08;;
15159;SDS011;7680;48.800;9.680;2023-09-19T17:52:49;2.05;;;1.85;;
15159;SDS011;7680;48.800;9.680;2023-09-19T17:57:52;2.33;;;2.17;;
15159;SDS011;7680;48.800;9.680;2023-09-19T18:03:00;3.63;;;2.28;;
15159;SDS011;7680;48.800;9.680;2023-09-19T18:08:07;2.10;;;1.90;;
15159;SDS011;7680;48.800;9.680;2023-09-19T18:13:10;2.13;;;1.90;;
15159;SDS011;7680;48.800;9.680;2023-09-19T18:18:14;2.30;;;2.10;;
15159;SDS011;7680;48.800;9.680;2023-09-19T18:23:20;2.60;;;2.40;;
15159;SDS011;7680;48.800;9.680;2023-09-19T18:28:23;2.78;;;2.10;;
15159;SDS011;7680;48.800;9.680;2023-09-19T18:33:27;2.25;;;2.05;;
15159;SDS011;7680;48.800;9.680;2023-09-19T18:38:32;2.47;;;2.28;;
15159;SDS011;7680;48.800;9.680;2023-09-19T18:43:40;1.77;;;1.67;;
15159;SDS011;7680;48.800;9.680;2023-09-19T18:48:43;2.70;;;2.50;;
15159;SDS011;7680;48.800;9.680;2023-09-19T18:53:50;2.53;;;2.33;;
15159;SDS011;7680;48.800;9.680;2023-09-19T18:59:10;3.38;;;2.22;;
15159;SDS011;7680;48.800;9.680;2023-09-19T19:04:16;2.42;;;2.17;;
15159;SDS011;7680;48.800;9.680;2023-09-19T19:09:21;2.50;;;2.30;;
15159;SDS011;7680;48.800;9.680;2023-09-19T19:14:24;2.67;;;2.33;;
15159;SDS011;7680;48.800;9.680;2023-09-19T19:19:28;2.63;;;2.42;;
15159;SDS011;7680;48.800;9.680;2023-09-19T19:24:34;3.40;;;2.03;;
15159;SDS011;7680;48.800;9.680;2023-09-19T19:29:37;2.30;;;2.10;;
15159;SDS011;7680;48.800;9.680;2023-09-19T19:34:40;2.65;;;2.45;;
15159;SDS011;7680;48.800;9.680;2023-09-19T19:39:45;2.70;;;2.08;;
15159;SDS011;7680;48.800;9.680;2023-09-19T19:44:48;2.63;;;1.92;;
15159;SDS011;7680;48.800;9.680;2023-09-19T19:49:55;2.83;;;2.50;;
15159;SDS011;7680;48.800;9.680;2023-09-19T19:55:01;2.80;;;2.42;;
15159;SDS011;7680;48.800;9.680;2023-09-19T20:00:05;2.28;;;2.08;;
15159;SDS011;7680;48.800;9.680;2023-09-19T20:05:10;2.53;;;2.33;;
15159;SDS011;7680;48.800;9.680;2023-09-19T20:10:15;2.70;;;2.30;;
15159;SDS011;7680;48.800;9.680;2023-09-19T20:15:20;2.92;;;2.63;;
15159;SDS011;7680;48.800;9.680;2023-09-19T20:20:26;2.63;;;2.40;;
15159;SDS011;7680;48.800;9.680;2023-09-19T20:25:30;2.83;;;2.28;;
15159;SDS011;7680;48.800;9.680;2023-09-19T20:30:37;3.63;;;2.60;;
15159;SDS011;7680;48.800;9.680;2023-09-19T20:35:43;2.55;;;2.35;;
15159;SDS011;7680;48.800;9.680;2023-09-19T20:40:48;3.42;;;2.55;;
15159;SDS011;7680;48.800;9.680;2023-09-19T20:45:51;3.03;;;2.72;;
15159;SDS011;7680;48.800;9.680;2023-09-19T20:50:55;3.60;;;2.88;;
15159;SDS011;7680;48.800;9.680;2023-09-19T20:56:00;3.17;;;2.63;;
15159;SDS011;7680;48.800;9.680;2023-09-19T21:01:05;3.30;;;2.90;;
15159;SDS011;7680;48.800;9.680;2023-09-19T21:06:10;2.63;;;2.42;;
15159;SDS011;7680;48.800;9.680;2023-09-19T21:11:18;3.25;;;2.92;;
15159;SDS011;7680;48.800;9.680;2023-09-19T21:16:22;3.00;;;2.80;;
15159;SDS011;7680;48.800;9.680;2023-09-19T21:21:26;2.70;;;2.50;;
15159;SDS011;7680;48.800;9.680;2023-09-19T21:26:30;3.15;;;2.60;;
15159;SDS011;7680;48.800;9.680;2023-09-19T21:31:33;3.42;;;2.45;;
15159;SDS011;7680;48.800;9.680;2023-09-19T21:36:37;2.83;;;2.58;;
15159;SDS011;7680;48.800;9.680;2023-09-19T21:41:42;3.08;;;2.67;;
15159;SDS011;7680;48.800;9.680;2023-09-19T21:46:45;3.83;;;2.70;;
15159;SDS011;7680;48.800;9.680;2023-09-19T21:51:48;2.67;;;2.47;;
15159;SDS011;7680;48.800;9.680;2023-09-19T21:56:53;3.13;;;2.47;;
15159;SDS011;7680;48.800;9.680;2023-09-19T22:01:56;2.88;;;2.67;;
15159;SDS011;7680;48.800;9.680;2023-09-19T22:07:00;3.92;;;2.88;;
15159;SDS011;7680;48.800;9.680;2023-09-19T22:12:05;2.80;;;2.60;;
15159;SDS011;7680;48.800;9.680;2023-09-19T22:17:08;4.28;;;2.85;;
15159;SDS011;7680;48.800;9.680;2023-09-19T22:22:14;3.03;;;2.63;;
15159;SDS011;7680;48.800;9.680;2023-09-19T22:27:20;4.55;;;3.17;;
15159;SDS011;7680;48.800;9.680;2023-09-19T22:32:24;3.00;;;2.80;;
15159;SDS011;7680;48.800;9.680;2023-09-19T22:37:27;2.80;;;2.60;;
15159;SDS011;7680;48.800;9.680;2023-09-19T22:42:31;2.80;;;2.60;;
15159;SDS011;7680;48.800;9.680;2023-09-19T22:47:38;2.70;;;2.40;;
15159;SDS011;7680;48.800;9.680;2023-09-19T22:52:42;3.83;;;2.65;;
15159;SDS011;7680;48.800;9.680;2023-09-19T22:57:53;2.90;;;2.70;;
15159;SDS011;7680;48.800;9.680;2023-09-19T23:02:56;3.28;;;2.85;;
15159;SDS011;7680;48.800;9.680;2023-09-19T23:08:00;3.63;;;3.10;;
15159;SDS011;7680;48.800;9.680;2023-09-19T23:13:06;3.10;;;2.78;;
15159;SDS011;7680;48.800;9.680;2023-09-19T23:18:10;3.35;;;3.08;;
15159;SDS011;7680;48.800;9.680;2023-09-19T23:23:15;4.05;;;3.08;;
15159;SDS011;7680;48.800;9.680;2023-09-19T23:28:21;3.10;;;2.90;;
15159;SDS011;7680;48.800;9.680;2023-09-19T23:33:25;3.13;;;2.88;;
15159;SDS011;7680;48.800;9.680;2023-09-19T23:38:28;3.65;;;3.33;;
15159;SDS011;7680;48.800;9.680;2023-09-19T23:43:33;2.83;;;2.63;;
15159;SDS011;7680;48.800;9.680;2023-09-19T23:48:37;3.63;;;2.85;;
15159;SDS011;7680;48.800;9.680;2023-09-19T23:53:42;3.42;;;3.08;;
15159;SDS011;7680;48.800;9.680;2023-09-19T23:58:46;3.50;;;3.03;;
